createdAt,value
2022-12-26T00:00:41.115Z,99.90
2022-12-26T00:03:13.504Z,99.90
2022-12-26T00:05:44.192Z,99.90
2022-12-26T00:08:12.084Z,99.90
2022-12-26T00:10:40.100Z,99.90
2022-12-26T00:13:40.344Z,99.90
2022-12-26T00:15:58.901Z,99.90
2022-12-26T00:18:28.147Z,99.90
2022-12-26T00:20:58.826Z,99.90
2022-12-26T00:23:36.241Z,99.90
2022-12-26T00:26:05.185Z,99.90
2022-12-26T00:28:40.428Z,99.90
2022-12-26T00:31:13.875Z,99.90
2022-12-26T00:33:43.456Z,99.90
2022-12-26T00:36:13.946Z,99.90
2022-12-26T00:38:49.821Z,99.50
2022-12-26T00:41:21.806Z,99.90
2022-12-26T00:43:56.081Z,99.80
2022-12-26T00:46:24.376Z,99.90
2022-12-26T00:48:59.962Z,99.90
2022-12-26T00:51:30.649Z,99.90
2022-12-26T00:54:00.731Z,99.90
2022-12-26T00:56:33.438Z,99.90
2022-12-26T00:59:04.425Z,99.90
2022-12-26T01:01:32.849Z,99.90
2022-12-26T01:04:08.252Z,99.90
2022-12-26T01:06:39.008Z,99.90
2022-12-26T01:09:11.995Z,99.90
2022-12-26T01:11:42.775Z,99.90
2022-12-26T01:14:18.270Z,99.90
2022-12-26T01:16:47.566Z,99.90
2022-12-26T01:19:41.477Z,99.90
2022-12-26T01:22:14.849Z,99.90
2022-12-26T01:24:42.971Z,99.90
2022-12-26T01:27:10.932Z,99.90
2022-12-26T01:29:38.835Z,99.90
2022-12-26T01:32:07.058Z,99.90
2022-12-26T01:34:36.304Z,99.90
2022-12-26T01:37:06.340Z,99.90
2022-12-26T01:39:39.965Z,99.90
2022-12-26T01:42:13.413Z,99.90
2022-12-26T01:45:18.441Z,99.90
2022-12-26T01:48:04.956Z,99.90
2022-12-26T01:50:39.873Z,99.90
2022-12-26T01:53:13.853Z,99.90
2022-12-26T01:55:42.641Z,99.90
2022-12-26T01:58:23.343Z,99.90
2022-12-26T02:00:52.120Z,99.90
2022-12-26T02:03:43.319Z,99.90
2022-12-26T02:06:16.717Z,99.90
2022-12-26T02:08:50.598Z,99.90
2022-12-26T02:11:26.531Z,99.90
2022-12-26T02:13:55.723Z,99.90
2022-12-26T02:16:25.582Z,99.90
2022-12-26T02:18:56.232Z,99.90
2022-12-26T02:22:00.379Z,99.90
2022-12-26T02:24:50.997Z,99.90
2022-12-26T02:27:32.258Z,99.90
2022-12-26T02:30:31.734Z,99.90
2022-12-26T02:33:43.870Z,99.90
2022-12-26T02:36:40.529Z,99.90
2022-12-26T02:39:44.485Z,99.90
2022-12-26T02:42:30.411Z,99.90
2022-12-26T02:45:34.931Z,99.90
2022-12-26T02:48:10.756Z,99.90
2022-12-26T02:54:17.392Z,99.90
2022-12-26T02:57:08.126Z,99.90
2022-12-26T03:00:04.907Z,99.90
2022-12-26T03:02:57.539Z,99.90
2022-12-26T03:05:58.167Z,99.90
2022-12-26T03:08:48.429Z,99.90
2022-12-26T03:11:52.141Z,99.90
2022-12-26T03:14:25.262Z,99.90
2022-12-26T03:17:15.409Z,99.90
2022-12-26T03:20:00.275Z,99.90
2022-12-26T03:22:35.815Z,99.90
2022-12-26T03:25:29.258Z,99.90
2022-12-26T03:27:57.335Z,99.90
2022-12-26T03:30:43.203Z,99.90
2022-12-26T03:33:28.111Z,99.90
2022-12-26T03:35:56.061Z,99.90
2022-12-26T03:38:36.460Z,99.90
2022-12-26T03:41:40.238Z,99.90
2022-12-26T03:44:53.664Z,99.90
2022-12-26T03:47:47.591Z,99.90
2022-12-26T03:50:51.286Z,99.90
2022-12-26T03:53:46.358Z,99.90
2022-12-26T03:56:39.057Z,99.90
2022-12-26T03:59:28.298Z,99.90
2022-12-26T04:02:32.303Z,99.90
2022-12-26T04:05:25.258Z,99.90
2022-12-26T04:08:19.405Z,99.90
2022-12-26T04:11:11.129Z,99.90
2022-12-26T04:14:06.878Z,99.90
2022-12-26T04:17:01.070Z,99.90
2022-12-26T04:19:49.686Z,99.90
2022-12-26T04:23:03.414Z,99.90
2022-12-26T04:25:52.781Z,99.90
2022-12-26T04:28:39.949Z,99.90
2022-12-26T04:31:34.815Z,99.90
2022-12-26T04:34:30.084Z,99.90
2022-12-26T04:37:18.387Z,99.90
2022-12-26T04:40:08.089Z,99.90
2022-12-26T04:43:49.520Z,99.90
2022-12-26T04:46:02.612Z,99.90
2022-12-26T04:48:52.642Z,99.90
2022-12-26T04:51:29.306Z,99.90
2022-12-26T04:54:02.965Z,99.90
2022-12-26T04:56:36.920Z,98.60
2022-12-26T04:59:10.789Z,99.10
2022-12-26T05:01:56.209Z,98.70
2022-12-26T05:04:52.260Z,99.70
2022-12-26T05:07:42.091Z,98.80
2022-12-26T05:10:19.488Z,99.90
2022-12-26T05:12:56.153Z,99.50
2022-12-26T05:15:27.105Z,99.30
2022-12-26T05:18:31.085Z,99.90
2022-12-26T05:21:22.223Z,99.90
2022-12-26T05:24:18.670Z,99.90
2022-12-26T05:27:13.666Z,99.90
2022-12-26T05:29:41.797Z,99.90
2022-12-26T05:32:12.719Z,99.90
2022-12-26T05:34:45.552Z,99.90
2022-12-26T05:37:14.810Z,99.90
2022-12-26T05:39:48.634Z,98.90
2022-12-26T05:42:16.490Z,99.20
2022-12-26T05:44:47.721Z,99.70
2022-12-26T05:47:15.599Z,99.70
2022-12-26T05:49:49.585Z,98.30
2022-12-26T05:52:18.815Z,99.40
2022-12-26T05:54:55.990Z,99.60
2022-12-26T05:57:23.869Z,99.70
2022-12-26T05:59:56.958Z,99.40
2022-12-26T06:02:24.906Z,99.70
2022-12-26T06:04:58.922Z,99.20
2022-12-26T06:07:31.108Z,97.70
2022-12-26T06:09:59.003Z,99.80
2022-12-26T06:12:30.005Z,98.40
2022-12-26T06:14:57.861Z,98.80
2022-12-26T06:17:25.759Z,99.80
2022-12-26T06:20:06.925Z,99.60
2022-12-26T06:22:36.136Z,99.20
2022-12-26T06:25:04.014Z,99.90
2022-12-26T06:27:31.864Z,99.30
2022-12-26T06:29:59.726Z,99.90
2022-12-26T06:32:27.592Z,99.10
2022-12-26T06:34:55.459Z,99.90
2022-12-26T06:37:26.412Z,99.90
2022-12-26T06:40:11.379Z,99.90
2022-12-26T06:42:42.084Z,99.90
2022-12-26T06:45:11.243Z,99.90
2022-12-26T06:47:42.001Z,99.90
2022-12-26T06:50:10.752Z,99.90
2022-12-26T06:52:38.793Z,99.80
2022-12-26T06:55:07.341Z,99.60
2022-12-26T06:57:39.679Z,99.30
2022-12-26T07:00:08.765Z,99.20
2022-12-26T07:02:36.722Z,99.20
2022-12-26T07:05:05.402Z,99.00
2022-12-26T07:07:33.284Z,99.40
2022-12-26T07:10:04.309Z,99.20
2022-12-26T07:12:35.089Z,98.20
2022-12-26T07:15:04.752Z,97.80
2022-12-26T07:17:32.607Z,98.30
2022-12-26T07:20:00.487Z,98.40
2022-12-26T07:22:29.291Z,98.30
2022-12-26T07:25:00.357Z,98.80
2022-12-26T07:27:31.065Z,99.50
2022-12-26T07:29:58.907Z,99.40
2022-12-26T07:32:31.097Z,98.50
2022-12-26T07:34:58.947Z,99.20
2022-12-26T07:37:28.877Z,98.90
2022-12-26T07:39:59.211Z,98.80
2022-12-26T07:42:27.355Z,98.40
2022-12-26T07:44:55.229Z,98.80
2022-12-26T07:47:23.156Z,98.70
2022-12-26T07:49:55.052Z,98.90
2022-12-26T07:52:23.085Z,98.80
2022-12-26T07:54:56.917Z,98.70
2022-12-26T08:00:19.910Z,98.40
2022-12-26T08:02:49.482Z,98.30
2022-12-26T08:05:20.781Z,98.20
2022-12-26T08:07:49.155Z,98.20
2022-12-26T08:10:17.349Z,97.60
2022-12-26T08:12:45.578Z,97.70
2022-12-26T08:15:14.043Z,98.00
2022-12-26T08:17:41.915Z,99.40
2022-12-26T08:20:15.846Z,98.50
2022-12-26T08:22:48.135Z,98.90
2022-12-26T08:25:18.368Z,98.80
2022-12-26T08:27:49.670Z,98.10
2022-12-26T08:30:20.636Z,98.70
2022-12-26T08:32:52.239Z,98.70
2022-12-26T08:35:20.171Z,98.30
2022-12-26T08:37:52.546Z,98.50
2022-12-26T08:40:39.986Z,98.40
2022-12-26T08:46:00.391Z,98.30
2022-12-26T08:48:28.526Z,98.30
2022-12-26T08:50:57.904Z,97.90
2022-12-26T08:53:28.998Z,98.60
2022-12-26T08:55:57.355Z,98.50
2022-12-26T08:58:35.256Z,98.40
2022-12-26T09:01:14.287Z,97.60
2022-12-26T09:03:46.270Z,98.50
2022-12-26T09:06:16.208Z,97.70
2022-12-26T09:09:01.186Z,97.80
2022-12-26T09:11:31.647Z,97.80
2022-12-26T09:14:02.769Z,97.80
2022-12-26T09:16:37.523Z,97.60
2022-12-26T09:19:07.698Z,97.60
2022-12-26T09:21:38.697Z,97.60
2022-12-26T09:24:11.468Z,97.60
2022-12-26T09:26:39.710Z,97.40
2022-12-26T09:29:07.704Z,97.40
2022-12-26T09:31:36.705Z,97.40
2022-12-26T09:34:06.096Z,97.10
2022-12-26T09:36:37.990Z,97.30
2022-12-26T09:39:11.654Z,97.50
2022-12-26T09:41:57.456Z,97.60
2022-12-26T09:44:31.059Z,97.20
2022-12-26T09:47:14.093Z,97.30
2022-12-26T09:49:51.957Z,97.40
2022-12-26T09:52:24.133Z,97.30
2022-12-26T09:54:59.713Z,97.50
2022-12-26T09:57:35.294Z,97.50
2022-12-26T10:00:05.723Z,97.40
2022-12-26T10:02:35.163Z,96.60
2022-12-26T10:05:03.266Z,96.90
2022-12-26T10:07:40.676Z,97.20
2022-12-26T10:10:12.603Z,97.50
2022-12-26T10:12:50.067Z,97.20
2022-12-26T10:15:41.058Z,97.20
2022-12-26T10:18:25.981Z,96.20
2022-12-26T10:21:15.814Z,97.20
2022-12-26T10:23:46.084Z,97.20
2022-12-26T10:26:19.141Z,97.30
2022-12-26T10:28:54.560Z,97.30
2022-12-26T10:31:33.496Z,97.40
2022-12-26T10:34:08.985Z,97.40
2022-12-26T10:36:41.354Z,97.30
2022-12-26T10:39:24.333Z,97.40
2022-12-26T10:42:02.607Z,97.20
2022-12-26T10:44:30.529Z,97.20
2022-12-26T10:47:12.969Z,97.20
2022-12-26T10:49:46.688Z,96.80
2022-12-26T10:52:17.658Z,97.10
2022-12-26T10:55:28.970Z,97.10
2022-12-26T10:57:52.284Z,97.20
2022-12-26T11:00:25.147Z,97.20
2022-12-26T11:03:07.413Z,97.20
2022-12-26T11:08:43.132Z,97.00
2022-12-26T11:11:15.537Z,97.20
2022-12-26T11:13:50.005Z,97.20
2022-12-26T11:16:26.664Z,97.30
2022-12-26T11:18:58.539Z,97.40
2022-12-26T11:21:28.054Z,97.30
2022-12-26T11:24:20.684Z,97.60
2022-12-26T11:26:51.615Z,97.60
2022-12-26T11:29:23.751Z,97.30
2022-12-26T11:31:57.931Z,97.30
2022-12-26T11:34:32.517Z,97.30
2022-12-26T11:37:00.555Z,96.30
2022-12-26T11:39:39.558Z,97.40
2022-12-26T11:42:24.923Z,97.40
2022-12-26T11:44:57.191Z,97.50
2022-12-26T11:47:28.452Z,96.60
2022-12-26T11:50:02.503Z,97.70
2022-12-26T11:52:38.646Z,96.90
2022-12-26T11:55:29.013Z,97.70
2022-12-26T11:58:01.813Z,96.30
2022-12-26T12:00:31.563Z,97.80
2022-12-26T12:02:59.983Z,97.80
2022-12-26T12:05:41.974Z,97.50
2022-12-26T12:08:29.027Z,97.50
2022-12-26T12:11:15.242Z,96.60
2022-12-26T12:14:01.327Z,97.40
2022-12-26T12:20:13.623Z,97.20
2022-12-26T12:23:12.256Z,97.30
2022-12-26T12:25:57.779Z,97.20
2022-12-26T12:29:06.999Z,97.20
2022-12-26T12:31:45.581Z,97.10
2022-12-26T12:34:25.911Z,96.70
2022-12-26T12:37:15.123Z,96.90
2022-12-26T12:39:56.750Z,96.60
2022-12-26T12:42:48.592Z,96.00
2022-12-26T12:45:33.291Z,97.20
2022-12-26T12:48:45.352Z,96.00
2022-12-26T12:51:24.561Z,97.20
2022-12-26T12:54:31.833Z,97.00
2022-12-26T12:57:10.788Z,96.80
2022-12-26T12:59:49.840Z,96.40
2022-12-26T13:02:41.017Z,97.10
2022-12-26T13:05:29.353Z,97.30
2022-12-26T13:08:10.743Z,97.40
2022-12-26T13:10:47.514Z,97.00
2022-12-26T13:13:25.493Z,96.80
2022-12-26T13:15:58.938Z,97.40
2022-12-26T13:18:40.343Z,97.40
2022-12-26T13:21:12.412Z,97.40
2022-12-26T13:24:04.056Z,97.40
2022-12-26T13:26:42.304Z,96.90
2022-12-26T13:29:14.815Z,96.10
2022-12-26T13:31:48.695Z,96.90
2022-12-26T13:34:21.647Z,97.60
2022-12-26T13:36:55.694Z,98.00
2022-12-26T13:39:54.508Z,97.60
2022-12-26T13:42:58.796Z,97.80
2022-12-26T13:46:01.840Z,98.20
2022-12-26T13:48:59.810Z,97.70
2022-12-26T13:51:53.652Z,98.10
2022-12-26T13:54:23.807Z,98.30
2022-12-26T13:57:30.891Z,98.00
2022-12-26T14:00:41.890Z,98.00
2022-12-26T14:03:39.962Z,98.30
2022-12-26T14:06:47.099Z,97.80
2022-12-26T14:09:40.749Z,97.90
2022-12-26T14:12:45.476Z,97.20
2022-12-26T14:15:35.775Z,98.30
2022-12-26T14:18:36.674Z,98.40
2022-12-26T14:21:46.249Z,98.20
2022-12-26T14:24:36.879Z,96.30
2022-12-26T14:27:50.218Z,98.20
2022-12-26T14:30:25.199Z,97.90
2022-12-26T14:33:23.624Z,97.50
2022-12-26T14:36:02.207Z,96.70
2022-12-26T14:38:48.647Z,94.30
2022-12-26T14:41:32.758Z,97.10
2022-12-26T14:44:43.287Z,98.50
2022-12-26T14:47:38.611Z,95.90
2022-12-26T14:50:43.101Z,97.30
2022-12-26T14:53:32.573Z,98.00
2022-12-26T14:56:02.209Z,98.60
2022-12-26T14:58:42.600Z,94.60
2022-12-26T15:02:03.849Z,94.90
2022-12-26T15:05:11.097Z,96.40
2022-12-26T15:08:52.258Z,94.30
2022-12-26T15:11:53.900Z,96.00
2022-12-26T15:14:50.133Z,97.30
2022-12-26T15:17:27.195Z,96.00
2022-12-26T15:20:25.658Z,95.40
2022-12-26T15:23:34.481Z,94.90
2022-12-26T15:26:57.700Z,94.50
2022-12-26T15:30:02.814Z,92.80
2022-12-26T15:32:38.015Z,93.60
2022-12-26T15:35:18.273Z,93.10
2022-12-26T15:38:32.354Z,93.40
2022-12-26T15:41:33.181Z,95.20
2022-12-26T15:44:29.177Z,94.70
2022-12-26T15:47:09.726Z,95.20
2022-12-26T15:49:55.240Z,92.40
2022-12-26T15:52:37.409Z,92.10
2022-12-26T15:55:33.896Z,96.30
2022-12-26T16:00:55.505Z,95.70
2022-12-26T16:03:39.242Z,96.90
2022-12-26T16:06:39.153Z,96.50
2022-12-26T16:09:34.321Z,94.00
2022-12-26T16:12:21.819Z,96.00
2022-12-26T16:14:51.044Z,94.60
2022-12-26T16:17:22.415Z,94.50
2022-12-26T16:19:54.111Z,96.70
2022-12-26T16:25:38.094Z,96.80
2022-12-26T16:28:06.775Z,96.30
2022-12-26T16:30:37.851Z,96.30
2022-12-26T16:33:06.790Z,95.50
2022-12-26T16:35:38.793Z,95.60
2022-12-26T16:38:17.959Z,97.10
2022-12-26T16:40:47.464Z,97.10
2022-12-26T16:43:29.346Z,96.10
2022-12-26T16:46:05.470Z,96.20
2022-12-26T16:48:37.799Z,95.40
2022-12-26T16:51:08.116Z,95.90
2022-12-26T16:53:53.997Z,97.90
2022-12-26T16:56:34.749Z,95.80
2022-12-26T16:59:05.622Z,93.70
2022-12-26T17:01:43.138Z,92.10
2022-12-26T17:04:19.853Z,93.50
2022-12-26T17:06:59.905Z,92.90
2022-12-26T17:09:33.575Z,94.50
2022-12-26T17:12:03.636Z,95.00
2022-12-26T17:14:35.222Z,95.50
2022-12-26T17:17:05.223Z,94.90
2022-12-26T17:19:35.401Z,95.40
2022-12-26T17:22:27.601Z,95.90
2022-12-26T17:25:28.012Z,95.20
2022-12-26T17:28:27.166Z,95.10
2022-12-26T17:30:55.276Z,96.50
2022-12-26T17:33:28.829Z,94.70
2022-12-26T17:39:19.538Z,91.60
2022-12-26T17:41:54.817Z,90.70
2022-12-26T17:44:41.939Z,96.50
2022-12-26T17:47:22.711Z,95.50
2022-12-26T17:49:57.160Z,95.90
2022-12-26T17:52:40.415Z,96.30
2022-12-26T17:55:17.592Z,91.10
2022-12-26T17:58:01.198Z,94.30
2022-12-26T18:00:35.356Z,95.30
2022-12-26T18:03:06.087Z,94.70
2022-12-26T18:05:34.605Z,96.30
2022-12-26T18:08:02.942Z,93.30
2022-12-26T18:10:40.105Z,92.90
2022-12-26T18:13:16.933Z,95.10
2022-12-26T18:15:44.872Z,95.10
2022-12-26T18:21:17.777Z,92.30
2022-12-26T18:23:45.824Z,92.80
2022-12-26T18:26:18.606Z,92.80
2022-12-26T18:28:50.327Z,96.20
2022-12-26T18:31:18.376Z,96.40
2022-12-26T18:33:46.278Z,94.80
2022-12-26T18:36:15.697Z,95.80
2022-12-26T18:38:44.202Z,96.10
2022-12-26T18:41:15.097Z,94.50
2022-12-26T18:43:43.039Z,96.10
2022-12-26T18:46:16.934Z,93.60
2022-12-26T18:48:44.864Z,92.80
2022-12-26T18:51:12.936Z,96.00
2022-12-26T18:53:47.136Z,92.00
2022-12-26T18:56:18.303Z,93.00
2022-12-26T18:58:58.024Z,94.40
2022-12-26T19:01:30.565Z,95.10
2022-12-26T19:04:01.598Z,96.40
2022-12-26T19:06:32.885Z,91.30
2022-12-26T19:09:00.709Z,95.80
2022-12-26T19:11:31.585Z,91.70
2022-12-26T19:14:02.315Z,96.50
2022-12-26T19:16:31.637Z,94.30
2022-12-26T19:19:20.798Z,96.40
2022-12-26T19:22:14.606Z,95.60
2022-12-26T19:24:46.054Z,91.90
2022-12-26T19:27:13.920Z,94.10
2022-12-26T19:29:44.176Z,93.70
2022-12-26T19:32:13.405Z,93.70
2022-12-26T19:34:47.113Z,91.30
2022-12-26T19:37:38.192Z,95.70
2022-12-26T19:40:11.350Z,90.70
2022-12-26T19:42:40.261Z,95.50
2022-12-26T19:45:12.656Z,93.60
2022-12-26T19:47:47.975Z,95.40
2022-12-26T19:50:18.915Z,95.90
2022-12-26T19:52:52.298Z,94.30
2022-12-26T19:55:31.696Z,92.50
2022-12-26T19:58:08.953Z,91.60
2022-12-26T20:00:39.729Z,94.10
2022-12-26T20:03:08.982Z,97.10
2022-12-26T20:05:38.005Z,95.90
2022-12-26T20:08:06.464Z,92.50
2022-12-26T20:10:35.030Z,94.30
2022-12-26T20:13:03.440Z,93.70
2022-12-26T20:15:33.119Z,94.60
2022-12-26T20:18:04.225Z,96.70
2022-12-26T20:20:35.781Z,96.30
2022-12-26T20:23:03.654Z,96.70
2022-12-26T20:25:34.380Z,94.90
2022-12-26T20:28:11.173Z,94.90
2022-12-26T20:30:39.834Z,94.40
2022-12-26T20:33:07.756Z,96.50
2022-12-26T20:35:38.072Z,96.50
2022-12-26T20:38:10.859Z,96.80
2022-12-26T20:40:38.751Z,93.60
2022-12-26T20:43:06.647Z,96.60
2022-12-26T20:45:40.596Z,96.20
2022-12-26T20:48:11.481Z,94.80
2022-12-26T20:50:58.914Z,96.30
2022-12-26T20:53:27.397Z,95.30
2022-12-26T20:55:57.477Z,96.00
2022-12-26T20:58:29.317Z,95.90
2022-12-26T21:01:01.988Z,95.60
2022-12-26T21:03:30.252Z,95.40
2022-12-26T21:06:08.244Z,95.10
2022-12-26T21:08:36.947Z,95.10
2022-12-26T21:11:21.204Z,95.10
2022-12-26T21:13:55.390Z,94.80
2022-12-26T21:16:29.271Z,94.70
2022-12-26T21:19:10.891Z,94.60
2022-12-26T21:21:46.710Z,94.50
2022-12-26T21:24:28.955Z,94.40
2022-12-26T21:26:57.145Z,94.40
2022-12-26T21:29:27.003Z,94.20
2022-12-26T21:31:57.723Z,94.10
2022-12-26T21:34:33.214Z,94.60
2022-12-26T21:37:34.787Z,94.70
2022-12-26T21:40:12.052Z,94.30
2022-12-26T21:42:42.074Z,94.10
2022-12-26T21:45:11.279Z,94.20
2022-12-26T21:47:39.177Z,94.00
2022-12-26T21:50:08.073Z,94.10
2022-12-26T21:52:37.391Z,94.20
2022-12-26T21:55:30.114Z,94.00
2022-12-26T21:58:03.812Z,94.00
2022-12-26T22:00:33.177Z,93.90
2022-12-26T22:03:21.628Z,94.10
2022-12-26T22:05:50.736Z,94.00
2022-12-26T22:08:25.972Z,93.90
2022-12-26T22:11:17.428Z,93.70
2022-12-26T22:13:47.010Z,92.90
2022-12-26T22:16:20.862Z,93.60
2022-12-26T22:18:49.256Z,93.90
2022-12-26T22:21:18.510Z,93.90
2022-12-26T22:23:51.584Z,94.10
2022-12-26T22:26:24.155Z,94.20
2022-12-26T22:28:55.107Z,93.70
2022-12-26T22:31:25.369Z,93.90
2022-12-26T22:34:01.077Z,93.90
2022-12-26T22:36:30.719Z,93.90
2022-12-26T22:39:00.908Z,94.20
2022-12-26T22:41:46.261Z,94.20
2022-12-26T22:44:17.305Z,94.20
2022-12-26T22:46:52.826Z,94.10
2022-12-26T22:49:20.755Z,94.00
2022-12-26T22:51:51.422Z,94.00
2022-12-26T22:54:23.734Z,93.90
2022-12-26T22:56:51.589Z,94.10
2022-12-26T22:59:57.530Z,94.10
2022-12-26T23:02:07.443Z,92.30
2022-12-26T23:04:46.318Z,92.70
2022-12-26T23:07:16.063Z,94.10
2022-12-26T23:09:45.723Z,94.00
2022-12-26T23:12:37.703Z,94.00
2022-12-26T23:15:09.996Z,94.20
2022-12-26T23:18:01.472Z,94.10
2022-12-26T23:20:55.005Z,94.20
2022-12-26T23:23:36.186Z,94.00
2022-12-26T23:26:05.525Z,94.10
2022-12-26T23:28:50.741Z,93.90
2022-12-26T23:31:21.747Z,93.90
2022-12-26T23:33:52.455Z,94.30
2022-12-26T23:36:22.494Z,94.20
2022-12-26T23:38:50.436Z,94.10
2022-12-26T23:41:19.663Z,94.00
2022-12-26T23:43:47.526Z,93.20
2022-12-26T23:46:21.271Z,92.70
2022-12-26T23:48:51.944Z,94.00
2022-12-26T23:51:20.967Z,94.00
2022-12-26T23:53:48.841Z,94.20
2022-12-26T23:56:23.520Z,94.10
2022-12-26T23:58:54.348Z,94.20
